Time;durP1;ratioP1;P1;durP2;ratioP2;P2;SDS_P1;SDS_P2;PMS_P1;PMS_P2;Temp;Humidity;BMP_temperature;BMP_pressure;BME280_temperature;BME280_humidity;BME280_pressure;Samples;Min_cycle;Max_cycle;Signal;HPM_P1;HPM_P2
2021/04/05 00:00:13;;;;;;;34.47;12.17;;;;;;;4.61;74.72;99932.75;5096555;28;20039;-85
2021/04/05 00:02:39;;;;;;;24.50;12.30;;;;;;;4.59;74.91;99925.94;5078195;28;20078;-83
2021/04/05 00:05:11;;;;;;;36.90;12.90;;;;;;;4.67;74.87;99914.63;5077803;28;20512;-80
2021/04/05 00:07:37;;;;;;;26.30;11.63;;;;;;;4.67;75.11;99878.44;5094637;28;20048;-82
2021/04/05 00:10:08;;;;;;;25.83;11.27;;;;;;;4.68;74.73;99889.84;5095516;28;20089;-81
2021/04/05 00:12:34;;;;;;;29.58;12.05;;;;;;;4.71;74.83;99889.56;5094108;28;20039;-83
2021/04/05 00:14:59;;;;;;;27.73;12.43;;;;;;;4.77;74.91;99886.34;5094212;28;20033;-82
2021/04/05 00:17:24;;;;;;;24.13;11.40;;;;;;;4.77;74.61;99860.72;5077140;28;20042;-82
2021/04/05 00:19:50;;;;;;;32.93;12.87;;;;;;;4.77;74.99;99859.88;5093807;28;20028;-83
2021/04/05 00:22:15;;;;;;;36.00;12.57;;;;;;;4.80;74.87;99846.34;5094214;28;20055;-82
2021/04/05 00:24:40;;;;;;;24.27;10.57;;;;;;;4.83;74.77;99833.69;5094331;28;20050;-83
2021/04/05 00:27:06;;;;;;;34.60;11.20;;;;;;;4.83;74.67;99830.22;5094214;28;20118;-84
2021/04/05 00:29:32;;;;;;;45.40;13.45;;;;;;;4.86;75.09;99824.63;5093532;28;20036;-84
2021/04/05 00:31:57;;;;;;;31.88;11.25;;;;;;;4.86;74.72;99808.75;5093921;28;20035;-83
2021/04/05 00:34:23;;;;;;;29.97;10.93;;;;;;;4.88;74.86;99792.75;5094747;28;20115;-83
2021/04/05 00:36:48;;;;;;;31.47;10.20;;;;;;;4.86;74.63;99792.88;5094812;28;20087;-83
2021/04/05 00:39:13;;;;;;;26.67;12.17;;;;;;;4.85;74.72;99778.84;5094361;28;20105;-84
2021/04/05 00:41:39;;;;;;;34.87;13.67;;;;;;;4.87;74.85;99784.00;5093687;28;20048;-81
2021/04/05 00:44:05;;;;;;;28.52;10.82;;;;;;;4.90;74.72;99777.56;5094485;28;20046;-85
2021/04/05 00:46:30;;;;;;;21.60;10.40;;;;;;;4.93;75.38;99772.78;5094346;28;20049;-80
2021/04/05 00:48:56;;;;;;;28.07;10.87;;;;;;;4.97;75.54;99770.69;5093275;28;20047;-79
2021/04/05 00:51:25;;;;;;;26.98;11.38;;;;;;;4.96;75.44;99750.50;5093003;28;20058;-82
2021/04/05 00:53:51;;;;;;;30.02;11.25;;;;;;;4.93;75.31;99746.34;5093166;28;20036;-81
2021/04/05 00:56:23;;;;;;;30.98;12.40;;;;;;;4.95;75.29;99747.03;5094193;28;20047;-83
2021/04/05 00:58:49;;;;;;;28.17;12.35;;;;;;;5.00;75.67;99736.00;5093909;28;20024;-81
2021/04/05 01:01:20;;;;;;;;;;;;;;;5.00;75.48;99725.41;5093488;28;20035;-83
2021/04/05 01:03:47;;;;;;;32.75;12.48;;;;;;;5.02;75.15;99718.97;5092853;28;19966;-81
2021/04/05 01:06:27;;;;;;;30.60;12.23;;;;;;;5.06;75.47;99707.13;5076067;28;20476;-82
2021/04/05 01:08:53;;;;;;;31.50;12.18;;;;;;;5.03;75.63;99715.38;5075940;28;20777;-83
2021/04/05 01:11:24;;;;;;;33.92;11.90;;;;;;;5.03;75.88;99688.91;5093035;28;20470;-83
2021/04/05 01:13:52;;;;;;;29.20;10.90;;;;;;;4.99;75.61;99687.56;5076216;28;20126;-83
2021/04/05 01:16:17;;;;;;;28.08;11.93;;;;;;;5.05;75.88;99681.63;5093899;28;20028;-79
2021/04/05 01:18:43;;;;;;;30.15;12.02;;;;;;;5.03;75.80;99685.41;5093535;28;20418;-82
2021/04/05 01:21:09;;;;;;;32.60;12.50;;;;;;;5.03;76.34;99664.25;5093570;28;20067;-82
2021/04/05 01:23:35;;;;;;;26.60;11.93;;;;;;;5.01;76.21;99640.63;5093177;28;20449;-83
2021/04/05 01:26:01;;;;;;;31.63;12.55;;;;;;;5.04;76.12;99636.84;5092542;28;20109;-82
2021/04/05 01:28:27;;;;;;;25.23;12.30;;;;;;;4.98;75.97;99635.63;5093476;28;20048;-80
2021/04/05 01:30:56;;;;;;;34.53;12.82;;;;;;;4.97;76.41;99626.03;5092669;28;20586;-83
2021/04/05 01:33:33;;;;;;;32.38;12.82;;;;;;;4.96;77.00;99608.47;5093461;28;20044;-82
2021/04/05 01:36:03;;;;;;;29.55;13.52;;;;;;;4.99;76.88;99616.13;5093578;28;20035;-81
2021/04/05 01:38:34;;;;;;;31.05;10.60;;;;;;;5.00;76.87;99596.63;5092205;28;20044;-83
2021/04/05 01:41:13;;;;;;;30.52;12.30;;;;;;;5.01;76.73;99589.50;5092567;28;20050;-84
2021/04/05 01:43:39;;;;;;;29.83;12.32;;;;;;;5.04;76.68;99579.47;5092725;28;20067;-83
2021/04/05 01:46:05;;;;;;;;;;;;;;;5.01;76.71;99574.47;5093765;28;20338;-82
2021/04/05 01:48:32;;;;;;;30.77;12.30;;;;;;;5.01;76.82;99557.75;5092154;28;19924;-83
2021/04/05 01:50:59;;;;;;;;;;;;;;;5.03;77.19;99555.78;5093607;28;20155;-83
2021/04/05 01:53:25;;;;;;;28.90;12.40;;;;;;;5.02;77.40;99539.09;5075658;28;19931;-82
2021/04/05 01:55:51;;;;;;;37.60;13.85;;;;;;;5.01;77.82;99545.38;5092604;28;20044;-82
2021/04/05 01:58:18;;;;;;;34.50;12.50;;;;;;;5.03;77.74;99519.59;5092112;28;20032;-84
2021/04/05 02:00:45;;;;;;;33.95;12.38;;;;;;;5.02;77.77;99515.28;5092398;28;20052;-83
2021/04/05 02:03:11;;;;;;;31.02;14.27;;;;;;;4.99;77.95;99517.44;5092421;28;20572;-82
2021/04/05 02:05:42;;;;;;;31.77;14.65;;;;;;;5.05;78.02;99504.38;5092428;28;20048;-84
2021/04/05 02:08:07;;;;;;;36.08;12.55;;;;;;;5.04;78.35;99494.81;5092305;28;20373;-83
2021/04/05 02:10:34;;;;;;;33.63;13.93;;;;;;;5.07;78.45;99483.91;5093066;28;20094;-83
2021/04/05 02:12:59;;;;;;;;;;;;;;;5.07;78.17;99485.72;5093242;28;20077;-83
2021/04/05 02:15:25;;;;;;;;;;;;;;;5.04;78.43;99475.47;5092648;28;19916;-82
2021/04/05 02:17:52;;;;;;;31.98;13.68;;;;;;;5.04;78.93;99478.94;5091922;28;19931;-83
2021/04/05 02:20:19;;;;;;;31.38;13.98;;;;;;;5.10;78.95;99464.22;5092171;28;20054;-84
2021/04/05 02:22:47;;;;;;;39.65;13.48;;;;;;;5.12;78.77;99445.56;5092443;28;20039;-81
2021/04/05 02:25:15;;;;;;;33.88;14.15;;;;;;;5.07;79.21;99438.91;5091536;28;20052;-83
2021/04/05 02:27:46;;;;;;;35.70;13.73;;;;;;;5.05;80.00;99432.13;5092683;28;20410;-82
2021/04/05 02:30:23;;;;;;;28.33;13.75;;;;;;;5.02;80.73;99433.28;5092219;28;20100;-83
2021/04/05 02:32:59;;;;;;;34.33;15.30;;;;;;;4.99;81.33;99422.22;5091714;28;20031;-82
2021/04/05 02:35:27;;;;;;;41.17;14.38;;;;;;;5.02;81.80;99406.00;5092273;28;20518;-84
2021/04/05 02:37:54;;;;;;;44.65;14.52;;;;;;;4.92;82.34;99421.19;5092355;28;20039;-83
2021/04/05 02:40:20;;;;;;;37.65;14.68;;;;;;;4.84;82.90;99404.25;5092209;28;20050;-84
2021/04/05 02:42:47;;;;;;;41.03;16.48;;;;;;;4.81;83.57;99401.13;5093348;28;20039;-86
2021/04/05 02:45:17;;;;;;;36.55;15.45;;;;;;;4.77;84.57;99402.41;5092044;28;20039;-89
2021/04/05 02:47:43;;;;;;;44.92;17.00;;;;;;;4.73;85.37;99394.00;5092100;28;20055;-86
2021/04/05 02:50:09;;;;;;;49.87;17.13;;;;;;;4.72;86.00;99391.50;5092226;28;20029;-84
2021/04/05 02:52:36;;;;;;;;;;;;;;;4.63;86.77;99391.44;5091641;28;20627;-82
2021/04/05 02:55:05;;;;;;;56.38;18.25;;;;;;;4.56;87.39;99389.59;5090991;28;20348;-81
2021/04/05 02:57:34;;;;;;;45.90;18.55;;;;;;;4.55;88.06;99378.19;5090519;28;20410;-80
2021/04/05 02:59:59;;;;;;;50.83;19.98;;;;;;;4.56;88.39;99379.00;5092343;28;20089;-84
2021/04/05 03:02:25;;;;;;;53.22;21.83;;;;;;;4.60;88.70;99369.78;5075117;28;20031;-83
2021/04/05 03:04:51;;;;;;;53.17;19.80;;;;;;;4.56;88.89;99376.38;5092703;28;20109;-84
2021/04/05 03:07:16;;;;;;;46.65;19.88;;;;;;;4.58;89.34;99367.28;5092203;28;20465;-89
2021/04/05 03:09:42;;;;;;;48.57;18.67;;;;;;;4.58;89.39;99369.94;5092097;28;20089;-86
2021/04/05 03:12:08;;;;;;;45.17;18.63;;;;;;;4.56;89.43;99363.97;5092897;28;20473;-85
2021/04/05 03:14:35;;;;;;;46.30;17.27;;;;;;;4.60;89.78;99357.41;5092206;28;20032;-86
2021/04/05 03:17:01;;;;;;;;;;;;;;;4.57;89.85;99357.72;5093175;28;20052;-82
2021/04/05 03:19:27;;;;;;;;;;;;;;;4.56;90.03;99353.41;5091570;28;19916;-83
2021/04/05 03:21:52;;;;;;;;;;;;;;;4.57;90.42;99365.66;5092657;28;19919;-80
2021/04/05 03:24:17;;;;;;;;;;;;;;;4.56;90.52;99355.22;5091426;28;20353;-78
2021/04/05 03:26:43;;;;;;;42.47;16.60;;;;;;;4.56;90.67;99363.16;5091028;28;20002;-79
2021/04/05 03:29:11;;;;;;;34.90;15.40;;;;;;;4.54;90.84;99360.69;5093817;28;20027;-79
2021/04/05 03:31:40;;;;;;;36.38;15.82;;;;;;;4.53;91.13;99355.56;5094846;28;20039;-77
2021/04/05 03:34:13;;;;;;;24.35;11.57;;;;;;;4.53;91.07;99374.06;5094689;28;20385;-76
2021/04/05 03:36:44;;;;;;;13.90;5.97;;;;;;;4.39;90.16;99388.66;5094701;28;20043;-77
2021/04/05 03:39:12;;;;;;;7.40;2.92;;;;;;;4.12;88.74;99393.13;5093648;28;20093;-77
2021/04/05 03:41:56;;;;;;;4.68;1.38;;;;;;;3.94;87.83;99389.69;5094860;28;20058;-79
2021/04/05 03:44:27;;;;;;;1.10;0.52;;;;;;;3.67;87.96;99394.06;5094883;28;20457;-77
2021/04/05 03:46:59;;;;;;;1.80;0.60;;;;;;;3.54;88.31;99393.63;5094598;28;20024;-78
2021/04/05 03:49:41;;;;;;;1.08;0.43;;;;;;;3.44;88.09;99398.97;5094462;28;20036;-79
2021/04/05 03:52:27;;;;;;;1.50;0.90;;;;;;;3.38;87.61;99400.38;5094535;28;20040;-77
2021/04/05 03:54:57;;;;;;;0.90;0.40;;;;;;;3.33;88.24;99399.19;5094637;28;20064;-79
2021/04/05 03:57:33;;;;;;;1.25;0.40;;;;;;;3.24;88.08;99400.06;5094359;28;20068;-79
2021/04/05 04:00:01;;;;;;;1.75;0.40;;;;;;;3.08;87.49;99404.16;5094490;28;20481;-78
2021/04/05 04:02:40;;;;;;;0.47;0.20;;;;;;;2.75;87.47;99421.41;5094415;28;20048;-78
2021/04/05 04:05:11;;;;;;;1.30;0.65;;;;;;;2.60;87.23;99414.91;5093397;28;20032;-79
2021/04/05 04:07:41;;;;;;;0.10;0.10;;;;;;;2.56;87.69;99414.38;5094320;28;20039;-80
2021/04/05 04:10:12;;;;;;;1.02;0.28;;;;;;;2.38;87.25;99427.47;5093045;28;20043;-78
2021/04/05 04:12:43;;;;;;;1.48;0.50;;;;;;;2.20;86.88;99406.31;5094069;28;20028;-78
2021/04/05 04:15:11;;;;;;;2.53;0.60;;;;;;;2.21;86.53;99413.22;5094052;28;20415;-78
2021/04/05 04:17:38;;;;;;;1.38;0.30;;;;;;;2.15;86.72;99415.59;5093759;28;20051;-79
2021/04/05 04:20:09;;;;;;;;;;;;;;;2.02;87.11;99416.72;5094304;28;20032;-78
2021/04/05 04:22:36;;;;;;;1.98;0.40;;;;;;;2.03;88.02;99415.72;5093246;28;20364;-77
2021/04/05 04:25:03;;;;;;;0.90;0.50;;;;;;;2.00;87.67;99413.38;5093036;28;20050;-79
2021/04/05 04:27:29;;;;;;;1.30;0.43;;;;;;;1.93;86.84;99417.56;5093513;28;20075;-77
2021/04/05 04:29:57;;;;;;;1.20;0.43;;;;;;;1.86;86.84;99411.19;5092792;28;20071;-77
2021/04/05 04:32:23;;;;;;;2.55;0.57;;;;;;;1.93;87.22;99401.75;5092823;28;20074;-78
2021/04/05 04:34:49;;;;;;;;;;;;;;;1.97;87.44;99402.31;5093095;28;20114;-76
2021/04/05 04:37:15;;;;;;;;;;;;;;;1.93;88.18;99388.59;5076162;28;20058;-79
2021/04/05 04:39:40;;;;;;;0.93;0.50;;;;;;;1.92;88.46;99400.13;5090821;28;19923;-77
2021/04/05 04:42:06;;;;;;;1.27;0.40;;;;;;;1.95;87.89;99399.81;5093497;28;20036;-79
2021/04/05 04:44:32;;;;;;;1.13;0.50;;;;;;;2.01;88.32;99407.13;5093592;28;20381;-78
2021/04/05 04:46:57;;;;;;;2.50;0.40;;;;;;;2.04;88.54;99403.44;5092534;28;20044;-79
2021/04/05 04:49:22;;;;;;;3.03;0.90;;;;;;;2.02;88.19;99406.19;5092454;28;20032;-79
2021/04/05 04:51:48;;;;;;;1.07;0.73;;;;;;;2.05;88.59;99408.53;5093508;28;20032;-78
2021/04/05 04:54:13;;;;;;;3.47;0.47;;;;;;;2.06;88.82;99402.31;5093423;28;20443;-80
2021/04/05 04:56:39;;;;;;;2.13;1.00;;;;;;;2.02;88.27;99395.66;5092560;28;20040;-80
2021/04/05 04:59:07;;;;;;;5.05;0.88;;;;;;;1.98;87.31;99396.06;5092095;28;20047;-79
2021/04/05 05:01:35;;;;;;;6.53;0.93;;;;;;;1.96;86.86;99411.19;5093344;28;20078;-80
2021/04/05 05:04:08;;;;;;;5.65;0.90;;;;;;;1.97;86.12;99404.97;5093321;28;20058;-79
2021/04/05 05:06:35;;;;;;;4.55;1.08;;;;;;;1.89;84.59;99389.84;5092286;28;20116;-79
2021/04/05 05:09:03;;;;;;;12.43;1.77;;;;;;;1.85;84.34;99391.09;5092788;28;20046;-79
2021/04/05 05:11:29;;;;;;;5.43;1.67;;;;;;;1.86;85.44;99395.41;5092077;28;20077;-79
2021/04/05 05:13:56;;;;;;;6.80;1.05;;;;;;;1.77;84.89;99393.59;5092189;28;20039;-79
2021/04/05 05:16:22;;;;;;;8.38;1.38;;;;;;;1.75;85.52;99395.53;5093106;28;20039;-78
2021/04/05 05:18:48;;;;;;;10.68;3.30;;;;;;;1.60;85.50;99395.94;5092913;28;20472;-79
2021/04/05 05:21:19;;;;;;;7.93;1.25;;;;;;;1.67;86.57;99401.50;5092932;28;20409;-78
2021/04/05 05:23:45;;;;;;;10.45;1.85;;;;;;;1.65;86.47;99404.25;5092563;28;20465;-80
2021/04/05 05:26:13;;;;;;;10.20;2.53;;;;;;;1.67;86.76;99402.31;5093040;28;20172;-79
2021/04/05 05:28:39;;;;;;;8.23;1.60;;;;;;;1.67;86.23;99407.59;5091632;28;20067;-79
2021/04/05 05:31:05;;;;;;;12.55;1.90;;;;;;;1.74;86.47;99391.25;5092715;28;20031;-79
2021/04/05 05:33:31;;;;;;;10.55;1.83;;;;;;;1.75;86.66;99395.53;5091470;28;20101;-79
2021/04/05 05:35:57;;;;;;;7.13;1.20;;;;;;;1.74;86.14;99386.00;5092408;28;20032;-78
2021/04/05 05:38:22;;;;;;;12.90;2.90;;;;;;;1.78;85.87;99382.09;5092179;28;20036;-79
2021/04/05 05:40:49;;;;;;;8.43;1.77;;;;;;;1.80;85.81;99386.28;5091396;28;20411;-80
2021/04/05 05:43:26;;;;;;;10.80;2.10;;;;;;;1.82;84.88;99379.03;5092198;28;20400;-79
2021/04/05 05:46:23;;;;;;;8.38;2.25;;;;;;;1.86;84.28;99372.53;5092455;28;20071;-78
2021/04/05 05:49:14;;;;;;;5.00;1.52;;;;;;;1.90;82.97;99376.56;5088769;28;20469;-79
2021/04/05 05:52:02;;;;;;;10.13;2.03;;;;;;;1.93;83.59;99385.97;5090992;28;20044;-78
2021/04/05 05:55:01;;;;;;;11.18;2.13;;;;;;;2.04;83.30;99385.00;5091369;28;20441;-79
2021/04/05 05:57:55;;;;;;;9.15;2.58;;;;;;;1.99;82.94;99372.25;5092236;28;20044;-78
2021/04/05 06:00:25;;;;;;;8.73;1.55;;;;;;;2.11;82.87;99380.81;5092391;28;20525;-80
2021/04/05 06:03:08;;;;;;;5.35;1.75;;;;;;;2.11;82.68;99381.66;5092284;28;20130;-80
2021/04/05 06:06:09;;;;;;;9.98;2.38;;;;;;;2.11;82.52;99379.03;5092640;28;20051;-79
2021/04/05 06:09:00;;;;;;;5.70;1.73;;;;;;;2.27;82.80;99382.84;5082082;28;20472;-79
2021/04/05 06:11:59;;;;;;;10.68;2.08;;;;;;;2.39;82.39;99384.38;5091135;28;20032;-78
2021/04/05 06:14:54;;;;;;;11.15;2.70;;;;;;;2.31;80.35;99389.50;5091311;28;20403;-80
2021/04/05 06:17:31;;;;;;;7.68;2.08;;;;;;;2.50;81.49;99381.53;5074450;28;20047;-81
2021/04/05 06:20:09;;;;;;;8.52;2.75;;;;;;;2.64;81.13;99385.50;5091464;28;20028;-82
2021/04/05 06:22:44;;;;;;;9.60;2.17;;;;;;;2.58;80.03;99364.19;5092713;28;20064;-83
2021/04/05 06:25:29;;;;;;;8.85;1.92;;;;;;;2.50;80.98;99372.81;5092354;28;20036;-83
2021/04/05 06:28:07;;;;;;;9.77;1.98;;;;;;;3.12;80.62;99370.44;5092236;28;20043;-83
2021/04/05 06:30:58;;;;;;;4.25;1.02;;;;;;;3.57;78.46;99373.03;5075019;28;20457;-83
2021/04/05 06:33:31;;;;;;;8.18;1.25;;;;;;;3.42;76.88;99371.91;5092962;28;20044;-85
2021/04/05 06:36:11;;;;;;;9.88;1.55;;;;;;;3.24;77.53;99376.34;5092162;28;20101;-84
2021/04/05 06:38:41;;;;;;;14.82;2.38;;;;;;;3.23;76.87;99374.66;5091850;28;20048;-83
2021/04/05 06:41:29;;;;;;;6.97;1.38;;;;;;;3.09;78.63;99374.19;5091100;28;20020;-82
2021/04/05 06:44:13;;;;;;;15.15;1.95;;;;;;;3.37;76.13;99372.34;5090998;28;20040;-81
2021/04/05 06:47:11;;;;;;;10.02;1.70;;;;;;;4.17;72.82;99375.00;5090546;28;20067;-78
2021/04/05 06:49:55;;;;;;;3.75;1.13;;;;;;;4.89;69.11;99379.16;5090118;28;20122;-77
2021/04/05 06:52:58;;;;;;;8.77;1.60;;;;;;;4.51;70.13;99384.78;5091178;28;20072;-77
2021/04/05 06:55:44;;;;;;;4.68;2.13;;;;;;;4.55;69.33;99375.56;5091367;28;20036;-77
2021/04/05 06:58:20;;;;;;;9.13;1.83;;;;;;;4.67;68.30;99391.97;5090979;28;20035;-78
2021/04/05 07:01:01;;;;;;;6.78;1.88;;;;;;;3.92;70.80;99384.53;5091307;28;20120;-76
2021/04/05 07:03:56;;;;;;;8.38;1.30;;;;;;;3.57;69.22;99369.56;5094074;28;20121;-78
2021/04/05 07:06:31;;;;;;;7.85;1.63;;;;;;;3.54;66.90;99377.78;5093889;28;20393;-78
2021/04/05 07:09:33;;;;;;;7.88;1.75;;;;;;;3.60;66.76;99382.44;5074221;28;20035;-79
2021/04/05 07:12:33;;;;;;;8.27;1.60;;;;;;;3.50;66.29;99371.97;5092592;28;20105;-78
2021/04/05 07:15:05;;;;;;;13.20;1.92;;;;;;;3.89;65.18;99373.47;5092047;28;20105;-80
2021/04/05 07:17:47;;;;;;;9.98;2.50;;;;;;;3.56;63.07;99370.56;5094827;28;20055;-81
2021/04/05 07:20:28;;;;;;;11.30;1.75;;;;;;;3.03;64.18;99382.69;5093234;28;20054;-83
2021/04/05 07:23:11;;;;;;;7.65;1.77;;;;;;;2.78;64.23;99386.84;5094481;28;20031;-81
2021/04/05 07:25:51;;;;;;;5.88;2.70;;;;;;;2.60;65.67;99409.66;5093965;28;20035;-79
2021/04/05 07:28:33;;;;;;;11.00;2.13;;;;;;;3.03;67.00;99395.88;5094845;28;20415;-78
2021/04/05 07:31:14;;;;;;;9.32;2.47;;;;;;;3.51;64.87;99392.13;5094514;28;20052;-80
2021/04/05 07:33:42;;;;;;;11.65;2.05;;;;;;;2.93;67.54;99401.19;5093095;28;20028;-76
2021/04/05 07:36:23;;;;;;;4.88;1.52;;;;;;;2.10;72.50;99445.78;5093700;28;20032;-79
2021/04/05 07:39:24;;;;;;;6.90;1.15;;;;;;;1.32;78.74;99487.00;5094049;28;20049;-79
2021/04/05 07:41:55;;;;;;;2.28;0.40;;;;;;;0.46;82.49;99483.81;5084974;28;20040;-80
2021/04/05 07:44:31;;;;;;;5.22;0.75;;;;;;;0.25;83.81;99506.63;5093735;28;20048;-84
2021/04/05 07:47:33;;;;;;;0.88;0.30;;;;;;;0.26;84.98;99509.13;5094541;28;20054;-82
2021/04/05 07:50:06;;;;;;;1.30;0.35;;;;;;;0.49;84.40;99506.38;5094885;28;20097;-80
2021/04/05 07:52:50;;;;;;;0.90;0.60;;;;;;;0.57;83.50;99506.56;5091849;28;20131;-83
2021/04/05 07:55:16;;;;;;;1.75;0.45;;;;;;;0.51;83.29;99510.53;5094988;28;20039;-82
2021/04/05 07:58:07;;;;;;;1.73;0.40;;;;;;;0.80;81.76;99509.91;5094988;28;20027;-85
2021/04/05 08:00:40;;;;;;;2.50;0.50;;;;;;;0.77;79.74;99525.91;5073618;28;20479;-82
2021/04/05 08:03:43;;;;;;;0.77;0.50;;;;;;;1.00;78.83;99529.22;5092193;28;20470;-78
2021/04/05 08:06:13;;;;;;;10.23;1.00;;;;;;;1.12;75.08;99543.91;5088491;28;20484;-79
2021/04/05 08:08:45;;;;;;;6.07;1.10;;;;;;;1.83;75.30;99541.25;5093370;28;20028;-82
2021/04/05 08:11:38;;;;;;;6.03;0.80;;;;;;;1.31;76.23;99539.72;5093589;28;20708;-83
2021/04/05 08:14:07;;;;;;;4.78;1.65;;;;;;;1.46;79.17;99572.59;5092354;28;20032;-82
2021/04/05 08:16:45;;;;;;;3.58;0.60;;;;;;;1.39;74.86;99585.44;5094702;28;20036;-85
2021/04/05 08:19:56;;;;;;;3.67;1.27;;;;;;;0.82;76.67;99587.63;5094436;28;20473;-80
2021/04/05 08:22:40;;;;;;;10.43;2.13;;;;;;;0.12;76.67;99604.75;5092000;28;20059;-84
2021/04/05 08:25:59;;;;;;;8.77;2.58;;;;;;;-0.03;77.16;99608.59;5090847;28;20089;-84
2021/04/05 08:29:17;;;;;;;9.27;1.67;;;;;;;0.23;75.76;99610.91;5094481;28;20106;-85
2021/04/05 08:31:59;;;;;;;8.88;1.13;;;;;;;1.05;75.07;99617.25;5082245;28;20044;-87
2021/04/05 08:34:55;;;;;;;8.60;1.42;;;;;;;1.77;72.64;99599.69;5092874;28;20476;-81
2021/04/05 08:37:59;;;;;;;6.00;1.30;;;;;;;2.23;68.97;99594.81;5093417;28;20461;-80
2021/04/05 08:40:38;;;;;;;5.40;0.80;;;;;;;2.93;67.42;99590.22;5069554;28;20086;-81
2021/04/05 08:43:11;;;;;;;5.07;1.20;;;;;;;2.90;66.74;99593.09;5054338;28;20127;-82
2021/04/05 08:45:57;;;;;;;4.28;1.13;;;;;;;3.27;62.07;99582.59;5082213;28;20055;-79
2021/04/05 08:48:23;;;;;;;;;;;;;;;3.03;63.20;99582.28;5086592;28;20043;-82
2021/04/05 08:50:50;;;;;;;;;;;;;;;2.57;62.94;99584.69;5075783;28;20291;-81
2021/04/05 08:53:17;;;;;;;2.45;0.88;;;;;;;2.91;62.93;99578.97;5093052;28;19916;-80
2021/04/05 08:55:44;;;;;;;3.40;1.00;;;;;;;3.13;62.75;99596.25;5093946;28;20028;-79
2021/04/05 08:58:27;;;;;;;3.42;0.80;;;;;;;2.42;61.80;99586.09;5092327;28;20043;-78
2021/04/05 09:00:57;;;;;;;7.57;1.60;;;;;;;2.32;60.21;99591.34;5089824;28;20039;-80
2021/04/05 09:03:28;;;;;;;7.00;1.10;;;;;;;2.13;62.65;99586.91;5092861;28;20094;-79
2021/04/05 09:05:55;;;;;;;9.18;2.28;;;;;;;2.55;63.32;99589.25;5092760;28;20024;-79
2021/04/05 09:08:24;;;;;;;7.13;1.30;;;;;;;2.14;62.78;99587.72;5091497;28;20047;-80
2021/04/05 09:10:52;;;;;;;8.23;1.55;;;;;;;2.13;62.59;99586.03;5092544;28;20052;-81
2021/04/05 09:13:30;;;;;;;9.38;1.65;;;;;;;2.00;64.56;99587.13;5091926;28;20028;-80
2021/04/05 09:16:09;;;;;;;8.93;2.38;;;;;;;2.36;64.00;99592.72;5092193;28;20466;-80
2021/04/05 09:18:34;;;;;;;11.43;2.95;;;;;;;2.51;61.12;99580.81;5092140;28;20047;-85
2021/04/05 09:21:19;;;;;;;8.13;3.23;;;;;;;2.63;63.06;99578.84;5092938;28;20031;-83
2021/04/05 09:24:03;;;;;;;6.35;1.67;;;;;;;2.53;58.20;99578.03;5094012;28;20078;-86
2021/04/05 09:26:39;;;;;;;9.68;2.08;;;;;;;3.88;57.51;99575.13;5093259;28;20036;-88
2021/04/05 09:29:09;;;;;;;;;;;;;;;4.39;52.03;99555.97;5094720;28;20093;-84
2021/04/05 09:32:00;;;;;;;14.77;2.50;;;;;;;4.60;53.87;99560.13;5092468;28;19935;-84
2021/04/05 09:34:28;;;;;;;13.07;1.88;;;;;;;5.36;52.25;99559.47;5090849;28;20151;-80
2021/04/05 09:37:18;;;;;;;9.25;2.65;;;;;;;5.49;50.76;99548.44;5091635;28;20028;-81
2021/04/05 09:40:23;;;;;;;5.85;1.65;;;;;;;5.71;51.90;99544.38;5088241;28;20028;-83
2021/04/05 09:42:57;;;;;;;9.18;1.85;;;;;;;5.51;49.61;99543.81;5090516;28;20460;-79
2021/04/05 09:45:35;;;;;;;8.82;1.20;;;;;;;5.24;48.98;99536.91;5091366;28;20036;-82
2021/04/05 09:48:16;;;;;;;9.93;2.33;;;;;;;4.73;47.89;99565.00;5091106;28;20031;-84
2021/04/05 09:51:32;;;;;;;7.40;1.95;;;;;;;4.83;50.95;99555.19;5092701;28;20369;-85
2021/04/05 09:54:05;;;;;;;7.30;2.15;;;;;;;4.95;50.61;99551.28;5089311;28;20112;-82
2021/04/05 09:56:35;;;;;;;8.45;2.42;;;;;;;6.19;48.34;99544.69;5090025;28;20024;-82
2021/04/05 09:59:09;;;;;;;10.50;2.47;;;;;;;5.46;46.82;99552.22;5086422;28;20075;-81
2021/04/05 10:01:36;;;;;;;5.95;1.15;;;;;;;5.05;50.45;99572.34;5092230;28;20166;-86
2021/04/05 10:04:08;;;;;;;10.50;2.22;;;;;;;3.91;49.77;99558.97;5091040;28;20499;-84
2021/04/05 10:06:35;;;;;;;9.02;1.83;;;;;;;3.54;50.20;99533.50;5090975;28;20043;-80
2021/04/05 10:09:06;;;;;;;8.73;1.85;;;;;;;4.38;47.21;99535.00;5091751;28;20119;-79
2021/04/05 10:11:34;;;;;;;17.75;2.30;;;;;;;5.37;47.91;99531.19;5074411;28;20040;-79
2021/04/05 10:14:05;;;;;;;7.65;1.40;;;;;;;5.32;43.76;99534.31;5091258;28;20062;-83
2021/04/05 10:16:33;;;;;;;8.38;1.42;;;;;;;4.41;44.34;99529.41;5092019;28;20036;-79
2021/04/05 10:19:09;;;;;;;11.38;2.28;;;;;;;3.85;46.27;99535.81;5091545;28;20039;-82
2021/04/05 10:21:40;;;;;;;13.65;1.67;;;;;;;4.85;47.88;99538.16;5091775;28;20139;-84
2021/04/05 10:24:07;;;;;;;6.13;1.73;;;;;;;4.89;44.63;99546.59;5092576;28;20070;-82
2021/04/05 10:26:35;;;;;;;6.50;1.55;;;;;;;5.50;43.89;99543.00;5092128;28;20035;-80
2021/04/05 10:29:03;;;;;;;9.80;1.85;;;;;;;5.01;40.12;99540.09;5091670;28;20104;-80
2021/04/05 10:31:30;;;;;;;1.88;0.57;;;;;;;5.14;38.06;99555.53;5091162;28;20036;-81
2021/04/05 10:34:05;;;;;;;3.40;0.70;;;;;;;5.45;39.00;99539.97;5091888;28;20047;-82
2021/04/05 10:36:39;;;;;;;2.30;0.77;;;;;;;6.12;37.56;99552.47;5091860;28;20051;-79
2021/04/05 10:39:06;;;;;;;4.38;1.13;;;;;;;6.06;37.16;99553.13;5090582;28;20461;-80
2021/04/05 10:41:33;;;;;;;6.47;1.02;;;;;;;6.82;36.78;99554.66;5091629;28;20028;-80
2021/04/05 10:44:04;;;;;;;10.70;1.50;;;;;;;6.93;40.21;99546.38;5090451;28;20043;-80
2021/04/05 10:46:32;;;;;;;4.38;1.10;;;;;;;5.98;41.16;99545.16;5091227;28;20127;-79
2021/04/05 10:49:01;;;;;;;7.80;1.17;;;;;;;4.71;41.21;99551.13;5091155;28;20032;-80
2021/04/05 10:51:32;;;;;;;3.10;1.15;;;;;;;4.59;45.03;99569.88;5090606;28;20075;-78
2021/04/05 10:54:06;;;;;;;11.15;2.10;;;;;;;3.66;49.85;99579.81;5091329;28;20122;-81
2021/04/05 10:56:40;;;;;;;7.78;2.15;;;;;;;3.07;54.71;99575.75;5091689;28;20081;-81
2021/04/05 10:59:23;;;;;;;7.13;1.60;;;;;;;1.66;60.88;99598.00;5090841;28;20043;-82
2021/04/05 11:01:55;;;;;;;6.68;1.60;;;;;;;1.84;60.38;99584.19;5089978;28;20063;-80
2021/04/05 11:04:23;;;;;;;7.90;1.60;;;;;;;2.95;58.83;99585.63;5089113;28;20040;-82
2021/04/05 11:06:51;;;;;;;8.43;1.83;;;;;;;3.41;56.01;99562.00;5090706;28;20080;-82
2021/04/05 11:09:18;;;;;;;3.47;1.00;;;;;;;4.29;52.04;99572.91;5089242;28;20207;-84
2021/04/05 11:11:49;;;;;;;3.75;1.10;;;;;;;4.50;49.65;99560.22;5089491;28;20046;-85
2021/04/05 11:14:16;;;;;;;10.73;1.27;;;;;;;4.30;52.01;99579.84;5090057;28;20035;-82
2021/04/05 11:16:59;;;;;;;10.75;2.17;;;;;;;3.16;56.91;99614.41;5090979;28;20123;-81
2021/04/05 11:19:31;;;;;;;5.15;1.58;;;;;;;2.72;62.22;99611.47;5091586;28;20036;-84
2021/04/05 11:21:58;;;;;;;6.20;1.02;;;;;;;2.66;58.60;99615.47;5091609;28;20032;-81
2021/04/05 11:24:32;;;;;;;4.78;1.02;;;;;;;3.36;52.45;99589.66;5091142;28;20038;-80
2021/04/05 11:27:01;;;;;;;3.25;0.73;;;;;;;4.20;50.31;99596.59;5091483;28;20043;-81
2021/04/05 11:29:29;;;;;;;4.30;1.40;;;;;;;4.22;49.68;99580.59;5090099;28;20024;-79
2021/04/05 11:31:56;;;;;;;5.22;1.27;;;;;;;3.63;51.14;99589.81;5091075;28;20044;-81
2021/04/05 11:34:34;;;;;;;5.70;1.45;;;;;;;3.24;53.44;99593.44;5091312;28;20036;-79
2021/04/05 11:37:03;;;;;;;7.32;1.30;;;;;;;2.95;53.47;99610.19;5091528;28;20039;-83
2021/04/05 11:39:32;;;;;;;5.75;1.65;;;;;;;2.87;54.29;99591.59;5091214;28;20473;-81
2021/04/05 11:42:01;;;;;;;6.32;1.05;;;;;;;2.63;55.50;99612.28;5090981;28;20112;-84
2021/04/05 11:44:30;;;;;;;6.07;1.25;;;;;;;2.28;60.19;99634.72;5090663;28;20064;-83
2021/04/05 11:46:58;;;;;;;4.30;1.58;;;;;;;1.66;61.33;99660.31;5090885;28;20074;-84
2021/04/05 11:49:30;;;;;;;5.13;0.88;;;;;;;1.45;63.16;99644.56;5094178;28;20093;-84
2021/04/05 11:52:16;;;;;;;5.15;1.35;;;;;;;1.30;65.14;99659.84;5077499;28;20036;-85
2021/04/05 11:55:18;;;;;;;3.42;1.15;;;;;;;1.00;68.58;99660.63;5095034;28;20071;-85
2021/04/05 11:58:00;;;;;;;2.00;0.57;;;;;;;0.25;76.63;99632.63;5083576;28;20047;-84
2021/04/05 12:00:30;;;;;;;8.15;1.55;;;;;;;0.09;79.10;99644.34;5094079;28;20365;-84
2021/04/05 12:03:14;;;;;;;2.53;0.95;;;;;;;0.59;78.08;99641.25;5094258;28;20044;-84
2021/04/05 12:06:04;;;;;;;4.28;1.48;;;;;;;1.55;73.55;99639.38;5094896;28;20036;-79
2021/04/05 12:09:00;;;;;;;1.10;0.47;;;;;;;1.60;71.28;99630.09;5093713;28;20055;-81